Time;durP1;ratioP1;P1;durP2;ratioP2;P2;SDS_P1;SDS_P2;PMS_P1;PMS_P2;Temp;Humidity;BMP_temperature;BMP_pressure;BME280_temperature;BME280_humidity;BME280_pressure;Samples;Min_cycle;Max_cycle;Signal;HPM_P1;HPM_P2
2021/03/08 00:01:45;;;;;;;85.53;53.57;;;0.20;99.90;;;;;;5095665;28;20286;-68
2021/03/08 00:04:10;;;;;;;88.17;51.67;;;0.20;99.90;;;;;;5095906;28;20567;-67
2021/03/08 00:06:36;;;;;;;80.67;48.80;;;0.10;99.90;;;;;;5095179;28;20218;-67
2021/03/08 00:09:02;;;;;;;77.03;48.87;;;0.00;99.90;;;;;;5095842;28;20623;-68
2021/03/08 00:11:27;;;;;;;80.93;50.03;;;-0.10;99.90;;;;;;5094419;28;20176;-69
2021/03/08 00:13:53;;;;;;;78.73;50.17;;;-0.20;99.90;;;;;;5094347;28;20490;-66
2021/03/08 00:16:19;;;;;;;76.57;49.10;;;0.00;99.90;;;;;;5094320;28;20553;-67
2021/03/08 00:18:44;;;;;;;78.00;48.53;;;0.00;99.90;;;;;;5095496;28;20208;-68
2021/03/08 00:21:10;;;;;;;75.20;47.30;;;-0.20;99.90;;;;;;5095499;28;20205;-68
2021/03/08 00:23:35;;;;;;;70.70;44.70;;;-0.30;99.90;;;;;;5095318;28;20196;-68
2021/03/08 00:26:01;;;;;;;82.70;47.20;;;-0.30;99.90;;;;;;5095471;28;20306;-68
2021/03/08 00:28:27;;;;;;;71.27;45.77;;;-0.30;99.90;;;;;;5093890;28;20579;-69
2021/03/08 00:30:52;;;;;;;75.77;47.63;;;-0.40;99.90;;;;;;5095548;28;20259;-68
2021/03/08 00:33:18;;;;;;;78.47;46.57;;;-0.20;99.90;;;;;;5095226;28;20242;-66
2021/03/08 00:35:44;;;;;;;78.17;46.07;;;-0.40;99.90;;;;;;5095179;28;20263;-68
2021/03/08 00:38:09;;;;;;;73.40;44.03;;;-0.30;99.90;;;;;;5095027;28;20559;-67
2021/03/08 00:40:35;;;;;;;71.60;44.47;;;-0.30;99.90;;;;;;5094915;28;20216;-67
2021/03/08 00:43:00;;;;;;;64.43;42.33;;;-0.40;99.90;;;;;;5094879;28;20185;-68
2021/03/08 00:45:26;;;;;;;73.83;45.83;;;-0.30;99.90;;;;;;5095030;28;20645;-68
2021/03/08 00:47:52;;;;;;;70.13;44.47;;;-0.40;99.90;;;;;;5094973;28;20214;-67
2021/03/08 00:50:20;;;;;;;77.40;48.20;;;-0.40;99.90;;;;;;5094892;28;20176;-67
2021/03/08 00:52:46;;;;;;;71.93;46.75;;;-0.50;99.90;;;;;;5094733;28;20169;-68
2021/03/08 00:55:13;;;;;;;68.47;44.50;;;-0.40;99.90;;;;;;5095342;28;20255;-67
2021/03/08 00:57:39;;;;;;;70.05;44.63;;;-0.30;99.90;;;;;;5094772;28;20164;-66
2021/03/08 01:00:07;;;;;;;71.75;43.63;;;-0.40;99.90;;;;;;5095243;28;20219;-66
2021/03/08 01:02:33;;;;;;;67.00;41.92;;;-0.30;99.90;;;;;;5093189;28;20243;-68
2021/03/08 01:04:59;;;;;;;63.37;41.00;;;-0.20;99.90;;;;;;5095068;28;20197;-68
2021/03/08 01:07:24;;;;;;;65.43;41.60;;;-0.10;99.90;;;;;;5094726;28;20421;-68
2021/03/08 01:09:50;;;;;;;63.10;42.20;;;-0.20;99.90;;;;;;5094790;28;20550;-66
2021/03/08 01:12:17;;;;;;;64.80;41.90;;;-0.20;99.90;;;;;;5094562;28;20172;-68
2021/03/08 01:14:42;;;;;;;73.82;44.45;;;-0.20;99.90;;;;;;5094706;28;20256;-68
2021/03/08 01:17:08;;;;;;;68.17;42.43;;;-0.20;99.90;;;;;;5094459;28;20656;-68
2021/03/08 01:19:34;;;;;;;76.37;44.33;;;-0.10;99.90;;;;;;5093802;28;20196;-67
2021/03/08 01:22:00;;;;;;;79.90;43.90;;;-0.20;99.90;;;;;;5094303;28;20212;-68
2021/03/08 01:24:26;;;;;;;76.82;44.20;;;-0.30;99.90;;;;;;5093012;28;20204;-68
2021/03/08 01:26:52;;;;;;;74.40;45.40;;;-0.20;99.90;;;;;;5094308;28;20202;-68
2021/03/08 01:29:17;;;;;;;71.80;43.60;;;-0.20;99.90;;;;;;5093050;28;20212;-68
2021/03/08 01:31:43;;;;;;;70.37;45.37;;;-0.20;99.90;;;;;;5092864;28;20177;-67
2021/03/08 01:34:09;;;;;;;70.33;44.87;;;-0.30;99.90;;;;;;5093970;28;20200;-66
2021/03/08 01:36:34;;;;;;;68.83;44.97;;;-0.40;99.90;;;;;;5094177;28;20684;-68
2021/03/08 01:39:00;;;;;;;82.87;46.77;;;-0.30;99.90;;;;;;5092725;28;20415;-67
2021/03/08 01:41:26;;;;;;;71.70;45.13;;;-0.40;99.90;;;;;;5092668;28;20753;-67
2021/03/08 01:43:51;;;;;;;77.03;44.53;;;-0.40;99.90;;;;;;5094163;28;20249;-67
2021/03/08 01:46:18;;;;;;;72.27;45.00;;;-0.50;99.90;;;;;;5093990;28;20179;-67
2021/03/08 01:48:43;;;;;;;68.80;42.28;;;-0.40;99.90;;;;;;5093964;28;20681;-67
2021/03/08 01:51:09;;;;;;;67.23;42.73;;;-0.40;99.90;;;;;;5094067;28;20180;-68
2021/03/08 01:53:35;;;;;;;70.20;41.57;;;-0.50;99.90;;;;;;5093871;28;20669;-67
2021/03/08 01:56:03;;;;;;;63.13;39.22;;;-0.40;99.90;;;;;;5093909;28;20386;-67
2021/03/08 01:58:30;;;;;;;61.88;39.40;;;-0.10;99.90;;;;;;5093792;28;20279;-69
2021/03/08 02:00:56;;;;;;;59.90;41.45;;;-0.10;99.90;;;;;;5093743;28;20212;-67
2021/03/08 02:03:22;;;;;;;68.07;41.13;;;-0.10;99.90;;;;;;5093746;28;20195;-69
2021/03/08 02:05:48;;;;;;;64.95;41.45;;;-0.10;99.90;;;;;;5093815;28;20587;-67
2021/03/08 02:08:16;;;;;;;61.73;39.10;;;-0.30;99.90;;;;;;5092432;28;20288;-67
2021/03/08 02:10:43;;;;;;;65.63;40.42;;;-0.20;99.90;;;;;;5093707;28;20176;-66
2021/03/08 02:13:29;;;;;;;66.20;40.40;;;-0.40;99.90;;;;;;5093778;28;20192;-67
2021/03/08 02:16:09;;;;;;;67.85;40.20;;;-0.30;99.90;;;;;;5093743;28;20172;-68
2021/03/08 02:18:37;;;;;;;67.80;42.67;;;-0.40;99.90;;;;;;5093647;28;20188;-67
2021/03/08 02:21:31;;;;;;;62.55;38.83;;;-0.20;99.90;;;;;;5093540;28;20766;-67
2021/03/08 02:24:18;;;;;;;70.38;43.28;;;-0.50;99.90;;;;;;5093726;28;20184;-66
2021/03/08 02:27:08;;;;;;;64.05;41.05;;;-0.50;99.90;;;;;;5093610;28;20633;-69
2021/03/08 02:30:30;;;;;;;65.95;40.92;;;-0.50;99.90;;;;;;5094771;28;20235;-67
2021/03/08 02:32:57;;;;;;;66.85;41.15;;;-0.50;99.90;;;;;;5055176;28;20239;-69
2021/03/08 02:35:27;;;;;;;69.28;42.20;;;-0.60;99.90;;;;;;5055180;28;20370;-68
2021/03/08 02:38:03;;;;;;;72.13;44.70;;;-0.60;99.90;;;;;;5081726;28;20240;-68
2021/03/08 02:40:35;;;;;;;72.93;43.78;;;-0.60;99.90;;;;;;5097334;28;20243;-68
2021/03/08 02:43:03;;;;;;;67.97;42.40;;;-0.70;99.90;;;;;;5097294;28;20225;-67
2021/03/08 02:45:31;;;;;;;75.78;43.70;;;-0.70;99.90;;;;;;5097387;28;20181;-68
2021/03/08 02:48:01;;;;;;;78.85;48.20;;;-0.70;99.90;;;;;;5096163;28;20273;-70
2021/03/08 02:50:32;;;;;;;79.60;44.92;;;-0.70;99.90;;;;;;5095933;28;20222;-67
2021/03/08 02:53:06;;;;;;;76.70;46.75;;;-0.70;99.90;;;;;;5095823;28;20224;-67
2021/03/08 02:55:49;;;;;;;71.38;44.10;;;-0.70;99.90;;;;;;5097248;28;20172;-67
2021/03/08 02:58:17;;;;;;;72.50;44.58;;;-0.70;99.90;;;;;;5097103;28;20246;-67
2021/03/08 03:00:43;;;;;;;73.88;46.22;;;-0.80;99.90;;;;;;5096973;28;20600;-68
2021/03/08 03:03:09;;;;;;;69.65;42.78;;;-0.90;99.90;;;;;;5096885;28;20243;-67
2021/03/08 03:05:39;;;;;;;69.53;42.53;;;-0.80;99.90;;;;;;5096869;28;20255;-68
2021/03/08 03:08:08;;;;;;;75.85;44.33;;;-0.80;99.90;;;;;;5095515;28;20202;-67
2021/03/08 03:10:35;;;;;;;71.43;44.75;;;-0.70;99.90;;;;;;5096894;28;20534;-68
2021/03/08 03:13:03;;;;;;;69.43;42.35;;;-0.70;99.90;;;;;;5095663;28;20234;-69
2021/03/08 03:15:36;;;;;;;74.43;45.17;;;-0.70;99.90;;;;;;5096828;28;20172;-68
2021/03/08 03:18:04;;;;;;;81.28;44.75;;;-0.70;99.90;;;;;;5096665;28;20228;-69
2021/03/08 03:20:31;;;;;;;86.07;45.67;;;-0.80;99.90;;;;;;5095219;28;20176;-67
2021/03/08 03:22:58;;;;;;;79.93;46.40;;;-0.70;99.90;;;;;;5095270;28;20204;-66
2021/03/08 03:25:25;;;;;;;69.57;44.17;;;-0.60;99.90;;;;;;5096663;28;20577;-67
2021/03/08 03:27:52;;;;;;;76.22;46.80;;;-0.70;99.90;;;;;;5096442;28;20241;-66
2021/03/08 03:30:23;;;;;;;77.88;46.58;;;-0.60;99.90;;;;;;5097098;28;20255;-67
2021/03/08 03:32:49;;;;;;;80.85;47.00;;;-0.60;99.90;;;;;;5095131;28;20173;-68
2021/03/08 03:35:16;;;;;;;78.65;45.75;;;-0.60;99.90;;;;;;5095422;28;20314;-68
2021/03/08 03:37:43;;;;;;;73.13;44.72;;;-0.60;99.90;;;;;;5096380;28;20183;-66
2021/03/08 03:40:13;;;;;;;77.57;45.08;;;-0.80;99.90;;;;;;5096417;28;20231;-68
2021/03/08 03:42:41;;;;;;;80.45;46.47;;;-0.90;99.90;;;;;;5095187;28;20205;-66
2021/03/08 03:45:08;;;;;;;74.93;45.30;;;-0.80;99.90;;;;;;5096302;28;20183;-67
2021/03/08 03:47:34;;;;;;;77.88;44.53;;;-0.80;99.90;;;;;;5096115;28;20176;-68
2021/03/08 03:49:59;;;;;;;68.70;43.27;;;-0.90;99.90;;;;;;5096602;28;20277;-66
2021/03/08 03:52:25;;;;;;;82.70;45.50;;;-1.00;99.90;;;;;;5096144;28;20265;-67
2021/03/08 03:54:51;;;;;;;73.30;45.53;;;-1.10;99.90;;;;;;5094778;28;20216;-67
2021/03/08 03:57:17;;;;;;;68.43;44.80;;;-1.20;99.90;;;;;;5094767;28;20177;-67
2021/03/08 03:59:52;;;;;;;75.40;45.53;;;-1.20;99.90;;;;;;5096032;28;20410;-66
2021/03/08 04:02:35;;;;;;;74.32;44.42;;;-1.30;99.90;;;;;;5095869;28;20203;-67
2021/03/08 04:05:02;;;;;;;75.38;43.65;;;-1.30;99.90;;;;;;5096316;28;20588;-66
2021/03/08 04:07:33;;;;;;;76.43;42.78;;;-1.20;99.90;;;;;;5095795;28;20583;-68
2021/03/08 04:09:59;;;;;;;67.75;41.38;;;-1.20;99.90;;;;;;5096140;28;20173;-67
2021/03/08 04:12:31;;;;;;;64.90;43.42;;;-1.10;99.90;;;;;;5094382;28;20185;-66
2021/03/08 04:15:00;;;;;;;73.20;44.20;;;-1.40;99.90;;;;;;5096073;28;20199;-67
2021/03/08 04:17:27;;;;;;;71.78;43.03;;;-1.40;99.90;;;;;;5095556;28;20638;-67
2021/03/08 04:19:55;;;;;;;82.55;45.90;;;-1.30;99.90;;;;;;5094128;28;20685;-68
2021/03/08 04:22:25;;;;;;;72.53;42.80;;;-1.40;99.90;;;;;;5094131;28;20584;-66
2021/03/08 04:24:53;;;;;;;72.50;42.05;;;-1.40;99.90;;;;;;5095665;28;20189;-67
2021/03/08 04:27:20;;;;;;;71.97;42.20;;;-1.40;99.90;;;;;;5095445;28;20181;-67
2021/03/08 04:29:47;;;;;;;64.90;39.15;;;-1.40;99.90;;;;;;5095489;28;20202;-68
2021/03/08 04:32:16;;;;;;;66.57;42.08;;;-1.60;99.90;;;;;;5095284;28;20187;-69
2021/03/08 04:34:42;;;;;;;72.50;42.40;;;-1.60;99.90;;;;;;5095435;28;20215;-66
2021/03/08 04:37:08;;;;;;;68.20;43.13;;;-1.50;99.90;;;;;;5095209;28;20181;-68
2021/03/08 04:39:37;;;;;;;71.60;41.57;;;-1.50;99.90;;;;;;5093704;28;20262;-66
2021/03/08 04:42:07;;;;;;;58.78;39.75;;;-1.60;99.90;;;;;;5095049;28;20464;-67
2021/03/08 04:44:34;;;;;;;71.75;40.70;;;-1.50;99.90;;;;;;5093766;28;20233;-67
2021/03/08 04:47:02;;;;;;;62.10;38.30;;;-1.70;99.90;;;;;;5095030;28;20184;-69
2021/03/08 04:49:27;;;;;;;65.43;38.70;;;-1.50;99.90;;;;;;5095150;28;20211;-67
2021/03/08 04:51:53;;;;;;;67.20;38.90;;;-1.50;99.90;;;;;;5094875;28;20173;-68
2021/03/08 04:54:19;;;;;;;66.03;38.33;;;-1.40;99.90;;;;;;5094926;28;20552;-68
2021/03/08 04:56:47;;;;;;;64.35;40.38;;;-1.50;99.90;;;;;;5093481;28;20443;-67
2021/03/08 04:59:13;;;;;;;72.03;40.78;;;-1.50;99.90;;;;;;5094948;28;20223;-68
2021/03/08 05:01:41;;;;;;;69.28;41.67;;;-1.50;99.90;;;;;;5093672;28;20275;-66
2021/03/08 05:04:08;;;;;;;65.13;41.35;;;-1.30;99.90;;;;;;5093262;28;20221;-66
2021/03/08 05:06:38;;;;;;;64.00;39.63;;;-1.30;99.90;;;;;;5094648;28;20176;-66
2021/03/08 05:09:06;;;;;;;67.40;40.20;;;-1.30;99.90;;;;;;5094768;28;20258;-67
2021/03/08 05:11:35;;;;;;;62.10;41.40;;;-1.10;99.90;;;;;;5093075;28;20200;-66
2021/03/08 05:14:04;;;;;;;68.90;40.13;;;-1.20;99.90;;;;;;5094384;28;20661;-68
2021/03/08 05:16:36;;;;;;;61.88;38.13;;;-1.10;99.90;;;;;;5093140;28;20226;-68
2021/03/08 05:19:04;;;;;;;65.10;39.05;;;-1.00;99.90;;;;;;5094219;28;20188;-66
2021/03/08 05:21:31;;;;;;;65.25;41.03;;;-1.10;99.90;;;;;;5094224;28;20622;-67
2021/03/08 05:23:57;;;;;;;68.70;41.13;;;-1.10;99.90;;;;;;5093007;28;20200;-67
2021/03/08 05:26:25;;;;;;;63.87;38.03;;;-1.10;99.90;;;;;;5094328;28;20176;-68
2021/03/08 05:28:55;;;;;;;72.95;40.35;;;-1.10;99.90;;;;;;5094225;28;20274;-66
2021/03/08 05:31:21;;;;;;;75.50;43.65;;;-1.20;99.90;;;;;;5094237;28;20172;-67
2021/03/08 05:33:51;;;;;;;68.38;41.78;;;-1.00;99.90;;;;;;5092785;28;20669;-67
2021/03/08 05:36:18;;;;;;;71.88;43.78;;;-1.00;99.90;;;;;;5094235;28;20575;-69
2021/03/08 05:38:45;;;;;;;76.85;43.05;;;-0.80;99.90;;;;;;5092752;28;20298;-67
2021/03/08 05:41:33;;;;;;;68.07;43.45;;;-0.60;99.90;;;;;;5092706;28;20236;-66
2021/03/08 05:44:11;;;;;;;84.40;46.22;;;0.70;99.90;;;;;;5093981;28;20200;-66
2021/03/08 05:46:36;;;;;;;94.30;52.70;;;1.30;99.90;;;;;;5094021;28;20169;-67
2021/03/08 05:49:33;;;;;;;95.03;52.67;;;1.30;99.90;;;;;;5092675;28;20204;-66
2021/03/08 05:52:20;;;;;;;80.03;48.25;;;2.10;99.90;;;;;;5092671;28;20267;-68
2021/03/08 05:55:00;;;;;;;82.50;46.42;;;2.60;99.90;;;;;;5092687;28;20208;-69
2021/03/08 05:58:06;;;;;;;90.65;50.92;;;2.70;99.90;;;;;;5092676;28;20680;-67
2021/03/08 06:01:00;;;;;;;101.13;52.25;;;3.10;99.90;;;;;;5093780;28;20161;-67
2021/03/08 06:03:51;;;;;;;93.07;52.58;;;3.40;99.90;;;;;;5093933;28;20541;-67
2021/03/08 06:06:20;;;;;;;94.32;53.05;;;3.60;99.90;;;;;;5074851;28;20212;-67
2021/03/08 06:09:07;;;;;;;110.55;65.25;;;2.10;99.90;;;;;;5093713;28;20590;-69
2021/03/08 06:11:33;;;;;;;94.25;55.80;;;0.80;99.90;;;;;;5093812;28;20275;-68
2021/03/08 06:14:02;;;;;;;86.63;54.40;;;0.50;99.90;;;;;;5093534;28;20211;-67
2021/03/08 06:16:35;;;;;;;96.93;55.70;;;0.40;99.90;;;;;;5091624;28;20237;-67
2021/03/08 06:19:04;;;;;;;90.68;50.72;;;0.40;99.90;;;;;;5092024;28;20200;-68
2021/03/08 06:21:35;;;;;;;110.57;63.30;;;0.40;99.90;;;;;;5093532;28;20293;-68
2021/03/08 06:24:01;;;;;;;107.15;62.30;;;0.50;99.90;;;;;;5093697;28;20192;-67
2021/03/08 06:26:30;;;;;;;98.13;58.78;;;0.50;99.90;;;;;;5093612;28;20172;-68
2021/03/08 06:28:57;;;;;;;91.55;54.33;;;0.40;99.90;;;;;;5093610;28;20546;-67
2021/03/08 06:31:25;;;;;;;104.05;59.22;;;0.60;99.90;;;;;;5092194;28;20184;-66
2021/03/08 06:33:55;;;;;;;92.80;54.47;;;0.70;99.90;;;;;;5092145;28;20235;-66
2021/03/08 06:36:22;;;;;;;77.40;48.03;;;0.80;99.90;;;;;;5093547;28;20260;-68
2021/03/08 06:38:48;;;;;;;79.47;48.05;;;0.70;99.90;;;;;;5093511;28;20234;-69
2021/03/08 06:41:15;;;;;;;81.20;52.58;;;0.70;99.90;;;;;;5093399;28;20224;-68
2021/03/08 06:43:41;;;;;;;77.72;49.00;;;0.70;99.90;;;;;;5093370;28;20203;-66
2021/03/08 06:46:07;;;;;;;87.57;49.47;;;0.70;99.90;;;;;;5093208;28;20185;-67
2021/03/08 06:48:34;;;;;;;84.20;49.27;;;0.80;99.90;;;;;;5093462;28;20201;-66
2021/03/08 06:51:07;;;;;;;87.78;51.55;;;0.70;99.90;;;;;;5092108;28;20411;-68
2021/03/08 06:53:32;;;;;;;102.07;58.28;;;0.90;99.90;;;;;;5093245;28;20527;-66
2021/03/08 06:56:14;;;;;;;104.27;60.07;;;1.00;99.90;;;;;;5093296;28;20179;-68
2021/03/08 06:58:40;;;;;;;66.35;43.88;;;0.90;99.90;;;;;;5091826;28;20736;-67
2021/03/08 07:01:29;;;;;;;76.95;50.00;;;1.00;99.90;;;;;;5091125;28;20247;-68
2021/03/08 07:03:56;;;;;;;71.75;46.00;;;1.20;99.90;;;;;;5092954;28;20188;-66
2021/03/08 07:06:22;;;;;;;82.55;49.10;;;1.30;99.90;;;;;;5093108;28;20272;-69
2021/03/08 07:08:48;;;;;;;70.63;43.75;;;1.20;99.90;;;;;;5093238;28;20196;-67
2021/03/08 07:11:24;;;;;;;77.25;43.22;;;1.20;99.90;;;;;;5093243;28;20173;-67
2021/03/08 07:13:50;;;;;;;81.88;51.25;;;1.30;99.90;;;;;;5091881;28;20291;-67
2021/03/08 07:16:17;;;;;;;88.83;56.13;;;1.40;99.90;;;;;;5093604;28;20263;-67
2021/03/08 07:18:43;;;;;;;80.75;49.80;;;1.40;99.90;;;;;;5096481;28;20502;-68
2021/03/08 07:21:12;;;;;;;74.47;51.35;;;1.60;99.90;;;;;;5096679;28;20724;-68
2021/03/08 07:23:38;;;;;;;86.90;53.72;;;1.80;99.90;;;;;;5096614;28;20237;-69
2021/03/08 07:26:08;;;;;;;74.40;49.85;;;2.00;99.90;;;;;;5095026;28;20173;-67
2021/03/08 07:28:34;;;;;;;79.63;48.47;;;2.00;99.90;;;;;;5096339;28;20279;-67
2021/03/08 07:31:00;;;;;;;62.37;42.40;;;2.30;99.90;;;;;;5095146;28;20613;-68
2021/03/08 07:33:26;;;;;;;77.27;46.33;;;2.30;99.90;;;;;;5094980;28;20199;-68
2021/03/08 07:35:53;;;;;;;71.73;46.40;;;2.40;99.90;;;;;;5096444;28;20180;-68
2021/03/08 07:38:30;;;;;;;67.32;42.75;;;2.50;99.90;;;;;;5096313;28;20436;-67
2021/03/08 07:41:19;;;;;;;72.32;45.88;;;2.50;99.90;;;;;;5111354;28;20692;-67
2021/03/08 07:43:49;;;;;;;67.35;44.22;;;2.60;99.90;;;;;;5116665;28;20244;-67
2021/03/08 07:46:35;;;;;;;72.63;48.97;;;2.60;99.90;;;;;;5116870;28;20263;-67
2021/03/08 07:49:07;;;;;;;78.55;52.33;;;2.60;99.90;;;;;;5116757;28;20211;-69
2021/03/08 07:51:33;;;;;;;63.80;45.08;;;2.90;99.90;;;;;;5116593;28;20168;-67
2021/03/08 07:54:06;;;;;;;67.97;43.58;;;2.90;99.90;;;;;;5116660;28;20187;-68
2021/03/08 07:56:33;;;;;;;85.63;51.38;;;3.10;99.90;;;;;;5116414;28;20211;-68
2021/03/08 07:59:00;;;;;;;70.28;46.70;;;3.20;99.90;;;;;;5116482;28;20644;-69
2021/03/08 08:01:26;;;;;;;77.10;47.88;;;3.10;99.90;;;;;;5099611;28;20216;-68
2021/03/08 08:03:52;;;;;;;66.15;42.95;;;3.00;99.90;;;;;;5095336;28;20219;-68
2021/03/08 08:06:23;;;;;;;60.45;43.92;;;3.30;99.90;;;;;;5095194;28;20174;-67
2021/03/08 08:08:54;;;;;;;58.92;41.47;;;3.90;99.90;;;;;;5093338;28;20700;-66
2021/03/08 08:11:22;;;;;;;65.55;43.58;;;3.80;99.90;;;;;;5095118;28;20649;-68
2021/03/08 08:13:59;;;;;;;62.38;40.67;;;4.20;99.90;;;;;;5095490;28;20532;-67
2021/03/08 08:16:36;;;;;;;49.28;34.65;;;4.40;99.90;;;;;;5095241;28;20206;-70
2021/03/08 08:19:07;;;;;;;52.67;34.92;;;4.60;99.90;;;;;;5094767;28;20220;-69
2021/03/08 08:21:35;;;;;;;46.33;35.50;;;5.20;99.90;;;;;;5094709;28;20208;-67
2021/03/08 08:24:31;;;;;;;41.25;31.67;;;5.80;99.90;;;;;;5093108;28;20196;-67
2021/03/08 08:26:57;;;;;;;42.65;32.08;;;6.50;99.90;;;;;;5081190;28;20684;-67
2021/03/08 08:29:24;;;;;;;56.50;40.80;;;7.30;98.60;;;;;;5094218;28;20200;-67
2021/03/08 08:32:00;;;;;;;56.83;42.50;;;8.00;96.70;;;;;;5094676;28;20176;-68
2021/03/08 08:34:40;;;;;;;39.85;31.67;;;8.60;94.70;;;;;;5093451;28;20738;-68
2021/03/08 08:37:13;;;;;;;37.63;29.55;;;9.40;93.70;;;;;;5091764;28;20188;-69
2021/03/08 08:39:52;;;;;;;33.58;28.13;;;9.70;90.10;;;;;;5091592;28;20287;-68
2021/03/08 08:42:26;;;;;;;33.28;27.65;;;10.10;85.70;;;;;;5092869;28;20666;-68
2021/03/08 08:44:54;;;;;;;33.97;28.92;;;10.40;82.90;;;;;;5091742;28;20258;-67
2021/03/08 08:47:29;;;;;;;37.13;30.45;;;10.70;82.40;;;;;;5092841;28;20233;-68
2021/03/08 08:50:23;;;;;;;32.05;27.33;;;11.10;80.60;;;;;;5104922;28;20544;-69
2021/03/08 08:52:56;;;;;;;30.33;25.60;;;11.50;78.20;;;;;;5115384;28;20168;-68
2021/03/08 08:55:41;;;;;;;28.53;25.67;;;11.80;75.30;;;;;;5113006;28;20434;-68
2021/03/08 08:58:26;;;;;;;31.60;23.57;;;12.50;72.90;;;;;;5114660;28;20480;-70
2021/03/08 09:01:14;;;;;;;26.23;23.17;;;12.40;69.80;;;;;;5115007;28;20401;-68
2021/03/08 09:04:04;;;;;;;22.97;20.67;;;12.70;68.30;;;;;;5091282;28;21027;-70
2021/03/08 09:06:47;;;;;;;19.00;17.03;;;13.50;65.40;;;;;;5099457;28;20441;-68
2021/03/08 09:09:45;;;;;;;20.57;18.20;;;13.80;64.10;;;;;;5093248;28;20487;-68
2021/03/08 09:12:29;;;;;;;27.80;24.97;;;14.50;62.50;;;;;;5094248;28;20515;-69
2021/03/08 09:14:56;;;;;;;19.57;17.50;;;15.10;60.60;;;;;;5094805;28;20436;-70
2021/03/08 09:17:31;;;;;;;19.00;17.10;;;14.70;57.90;;;;;;5091773;28;20798;-70
2021/03/08 09:19:57;;;;;;;24.90;22.20;;;14.40;58.30;;;;;;5086664;28;20449;-68
2021/03/08 09:22:23;;;;;;;21.07;18.87;;;15.20;59.20;;;;;;5092800;28;20472;-70
2021/03/08 09:24:50;;;;;;;19.47;17.47;;;15.60;57.60;;;;;;5091817;28;20194;-69
2021/03/08 09:27:29;;;;;;;22.93;20.43;;;16.00;57.80;;;;;;5090043;28;20668;-69
2021/03/08 09:30:08;;;;;;;23.83;20.13;;;15.80;55.70;;;;;;5090834;28;20454;-68
2021/03/08 09:32:34;;;;;;;24.03;20.77;;;15.90;57.00;;;;;;5091944;28;20818;-69
2021/03/08 09:35:08;;;;;;;28.43;25.57;;;15.70;55.80;;;;;;5092377;28;20795;-70
2021/03/08 09:37:34;;;;;;;23.70;21.37;;;15.40;54.80;;;;;;5091893;28;20393;-68
2021/03/08 09:40:01;;;;;;;27.70;22.93;;;15.50;54.90;;;;;;5092498;28;20457;-69
2021/03/08 09:42:37;;;;;;;23.80;21.40;;;15.30;53.50;;;;;;5093959;28;20463;-70
2021/03/08 09:45:32;;;;;;;22.20;20.00;;;14.80;53.80;;;;;;5094502;28;20521;-68
2021/03/08 09:48:03;;;;;;;22.93;20.63;;;14.60;54.00;;;;;;5093845;28;20432;-70
2021/03/08 09:50:31;;;;;;;22.20;20.00;;;14.90;55.20;;;;;;5094118;28;20508;-69
2021/03/08 09:52:57;;;;;;;22.27;19.90;;;14.90;54.70;;;;;;5093758;28;20428;-68
2021/03/08 09:55:25;;;;;;;22.20;20.03;;;15.10;55.20;;;;;;5093856;28;20417;-69
2021/03/08 09:57:50;;;;;;;23.20;20.70;;;15.10;55.40;;;;;;5093659;28;20453;-68
2021/03/08 10:00:28;;;;;;;21.83;19.73;;;14.60;55.50;;;;;;5092291;28;20423;-69
2021/03/08 10:03:02;;;;;;;26.30;23.60;;;14.60;55.20;;;;;;5093190;28;20221;-69
2021/03/08 10:05:48;;;;;;;24.40;21.90;;;14.50;56.20;;;;;;5088532;28;20944;-70
2021/03/08 10:08:16;;;;;;;24.77;21.00;;;14.20;56.40;;;;;;5088622;28;20443;-68
2021/03/08 10:10:50;;;;;;;21.83;19.63;;;14.30;55.30;;;;;;5087622;28;20525;-70
2021/03/08 10:13:16;;;;;;;24.07;21.33;;;14.30;56.90;;;;;;5089540;28;20449;-68
2021/03/08 10:15:43;;;;;;;23.33;19.30;;;14.60;56.30;;;;;;5091231;28;20417;-69
2021/03/08 10:18:10;;;;;;;22.43;19.53;;;14.50;55.70;;;;;;5087903;28;20982;-69
2021/03/08 10:20:46;;;;;;;26.80;20.40;;;14.40;55.70;;;;;;5082756;28;20483;-68
2021/03/08 10:23:21;;;;;;;28.03;25.07;;;14.30;55.50;;;;;;5076869;28;20485;-68
2021/03/08 10:25:47;;;;;;;25.77;21.23;;;14.10;55.60;;;;;;5089725;28;20512;-68
2021/03/08 10:28:13;;;;;;;23.10;19.63;;;14.20;56.60;;;;;;5090904;28;20451;-69
2021/03/08 10:30:39;;;;;;;22.83;20.40;;;14.40;56.60;;;;;;5086832;28;20435;-69
2021/03/08 10:33:15;;;;;;;23.90;20.57;;;14.50;56.30;;;;;;5090706;28;20441;-68
2021/03/08 10:35:55;;;;;;;23.33;20.67;;;14.20;55.70;;;;;;5089248;28;20457;-69
2021/03/08 10:38:32;;;;;;;23.40;20.43;;;14.30;56.40;;;;;;5089819;28;20448;-68
2021/03/08 10:40:59;;;;;;;22.03;19.77;;;14.00;56.00;;;;;;5092879;28;20472;-68
2021/03/08 10:43:26;;;;;;;20.70;18.50;;;13.90;55.70;;;;;;5071781;28;20515;-68
2021/03/08 10:45:54;;;;;;;26.03;20.77;;;14.10;56.10;;;;;;5088964;28;20786;-68
2021/03/08 10:48:20;;;;;;;21.80;18.23;;;14.20;56.70;;;;;;5092314;28;20934;-69
2021/03/08 10:50:50;;;;;;;24.40;20.33;;;14.00;55.20;;;;;;5092152;28;20425;-69
2021/03/08 10:53:16;;;;;;;21.90;19.60;;;13.70;55.30;;;;;;5094199;28;20191;-69
2021/03/08 10:55:43;;;;;;;43.00;33.10;;;13.90;56.30;;;;;;5094745;28;20838;-70
2021/03/08 10:58:09;;;;;;;20.53;18.27;;;14.20;56.90;;;;;;5092705;28;20428;-70
2021/03/08 11:00:35;;;;;;;20.73;18.40;;;14.30;54.80;;;;;;5092347;28;20413;-70
2021/03/08 11:03:01;;;;;;;21.80;17.47;;;13.90;54.50;;;;;;5090197;28;20878;-68
2021/03/08 11:05:28;;;;;;;19.30;17.30;;;13.90;55.00;;;;;;5091575;28;20539;-69
2021/03/08 11:07:55;;;;;;;22.90;18.60;;;14.00;55.00;;;;;;5093929;28;20431;-68
2021/03/08 11:10:38;;;;;;;20.33;17.80;;;14.00;54.60;;;;;;5096124;28;20417;-69
2021/03/08 11:13:06;;;;;;;20.60;17.20;;;13.80;54.70;;;;;;5095613;28;20431;-68
2021/03/08 11:15:33;;;;;;;22.03;17.30;;;14.00;55.40;;;;;;5095110;28;20412;-69
2021/03/08 11:17:59;;;;;;;21.23;18.03;;;14.20;55.70;;;;;;5095235;28;20488;-69
2021/03/08 11:20:30;;;;;;;23.03;19.40;;;14.30;55.60;;;;;;5096494;28;20437;-70
2021/03/08 11:23:04;;;;;;;19.27;14.87;;;14.20;54.30;;;;;;5095217;28;20688;-68
2021/03/08 11:25:39;;;;;;;21.33;15.10;;;13.90;53.20;;;;;;5096604;28;20787;-68
2021/03/08 11:28:08;;;;;;;17.77;15.90;;;13.80;53.00;;;;;;5096188;28;21212;-69
2021/03/08 11:30:34;;;;;;;21.87;18.10;;;13.90;53.00;;;;;;5094456;28;20939;-69
2021/03/08 11:33:01;;;;;;;14.97;13.47;;;14.00;53.60;;;;;;5104082;28;20504;-69
2021/03/08 11:35:33;;;;;;;15.50;13.87;;;14.30;55.70;;;;;;5115126;27;20420;-68
2021/03/08 11:38:03;;;;;;;16.00;14.00;;;14.20;53.10;;;;;;5116492;28;20424;-71
2021/03/08 11:40:29;;;;;;;18.20;15.67;;;13.90;52.40;;;;;;5107931;28;20534;-70
2021/03/08 11:42:56;;;;;;;14.53;12.90;;;13.60;52.40;;;;;;5096045;28;20841;-69
2021/03/08 11:45:23;;;;;;;16.50;12.90;;;13.50;53.00;;;;;;5094767;28;20862;-70
2021/03/08 11:47:56;;;;;;;12.13;10.83;;;13.70;53.70;;;;;;5096092;28;20466;-68
2021/03/08 11:50:27;;;;;;;14.93;13.27;;;13.90;53.10;;;;;;5096639;28;20409;-68
2021/03/08 11:52:53;;;;;;;14.07;12.37;;;14.10;53.00;;;;;;5095997;28;20805;-70
2021/03/08 11:55:19;;;;;;;13.77;12.33;;;14.40;52.70;;;;;;5096423;28;20413;-69
2021/03/08 11:57:46;;;;;;;13.63;12.00;;;14.70;53.20;;;;;;5095782;28;20424;-68
2021/03/08 12:00:13;;;;;;;13.50;12.10;;;14.60;53.20;;;;;;5094788;28;20824;-69
2021/03/08 12:02:39;;;;;;;14.20;12.20;;;14.40;52.00;;;;;;5094066;28;20472;-68
2021/03/08 12:05:06;;;;;;;13.03;11.60;;;14.10;51.60;;;;;;5094732;28;20432;-68
2021/03/08 12:07:32;;;;;;;10.90;9.83;;;13.90;51.30;;;;;;5092194;28;20420;-68
2021/03/08 12:09:58;;;;;;;10.97;9.87;;;13.60;51.30;;;;;;5092235;28;20452;-70
2021/03/08 12:12:24;;;;;;;12.87;11.57;;;13.30;52.30;;;;;;5090910;28;20184;-69
2021/03/08 12:14:49;;;;;;;12.87;10.40;;;13.30;53.00;;;;;;5093837;28;20490;-68
2021/03/08 12:17:15;;;;;;;12.07;10.30;;;13.50;54.60;;;;;;5091869;28;20192;-70
2021/03/08 12:19:41;;;;;;;10.93;9.80;;;13.90;52.70;;;;;;5092289;28;20669;-68
2021/03/08 12:22:07;;;;;;;11.67;9.90;;;14.00;52.70;;;;;;5094745;28;20682;-70
2021/03/08 12:24:32;;;;;;;12.57;10.53;;;14.10;52.90;;;;;;5095559;28;20598;-69
2021/03/08 12:26:58;;;;;;;12.40;10.97;;;14.30;52.70;;;;;;5095146;28;20255;-70
2021/03/08 12:29:24;;;;;;;12.40;10.67;;;14.30;52.60;;;;;;5091698;28;20581;-70
2021/03/08 12:31:49;;;;;;;14.33;12.10;;;14.40;51.90;;;;;;5092325;28;20180;-69
2021/03/08 12:34:15;;;;;;;13.17;11.57;;;14.40;51.80;;;;;;5091692;28;20260;-68
2021/03/08 12:36:40;;;;;;;13.53;11.43;;;14.30;52.70;;;;;;5092917;28;20179;-71
2021/03/08 12:39:06;;;;;;;14.27;11.90;;;14.20;50.90;;;;;;5098119;28;20554;-68
2021/03/08 12:41:33;;;;;;;14.97;12.17;;;14.20;52.00;;;;;;5103654;28;20242;-68
2021/03/08 12:43:59;;;;;;;12.37;11.10;;;14.00;51.40;;;;;;5102070;28;20246;-70